Airport View

Enter AWOS ICAO identifier for current METAR.

ex. KFNL

KPIE 191753Z 20014KT 10SM FEW021 BKN075 OVC110 24/19 A3010 RMK AO2 SLP191 60000 T02390189 10244 20194 58015

19 Jan 2020 18:42

Phone: 727-531-3456

Other Area AWOS: KCLW - KTPA - KSPG - KMCF

TAF KPIE 191743Z 1918/2018 20011KT P6SM VCSH SCT040 BKN090 FM192000 25009KT P6SM VCSH BKN025 OVC090 FM200100 33011KT P6SM SCT015 BKN040 FM200700 36012KT P6SM SCT060 BKN250 FM201300 36010KT P6SM FEW250